createdAt,value
2017-10-31T00:02:41.000Z,5.87
2017-10-31T00:08:09.193Z,5.93
2017-10-31T00:13:37.332Z,6.07
2017-10-31T00:19:05.546Z,5.30
2017-10-31T00:24:33.752Z,5.30
2017-10-31T00:30:03.116Z,5.47
2017-10-31T00:35:31.266Z,4.70
2017-10-31T00:40:59.401Z,6.70
2017-10-31T00:46:27.527Z,6.20
2017-10-31T00:51:56.417Z,4.80
2017-10-31T00:57:24.560Z,5.50
2017-10-31T01:02:53.102Z,5.13
2017-10-31T01:08:21.247Z,5.30
2017-10-31T01:13:49.387Z,5.80
2017-10-31T01:19:17.646Z,6.57
2017-10-31T01:24:45.834Z,6.17
2017-10-31T01:30:22.711Z,6.50
2017-10-31T01:35:50.865Z,5.97
2017-10-31T01:41:23.686Z,5.57
2017-10-31T01:46:51.930Z,6.10
2017-10-31T01:52:20.065Z,6.43
2017-10-31T01:58:00.946Z,6.10
2017-10-31T02:03:29.186Z,6.20
2017-10-31T02:08:58.398Z,6.10
2017-10-31T02:14:27.519Z,6.07
2017-10-31T02:19:56.624Z,6.17
2017-10-31T02:25:24.873Z,4.80
2017-10-31T02:30:53.026Z,5.17
2017-10-31T02:36:21.231Z,4.20
2017-10-31T02:41:49.367Z,5.27
2017-10-31T02:47:20.233Z,5.50
2017-10-31T02:52:48.371Z,4.83
2017-10-31T02:58:17.912Z,5.40
2017-10-31T03:03:46.038Z,6.53
2017-10-31T03:09:15.551Z,5.80
2017-10-31T03:14:43.698Z,5.33
2017-10-31T03:20:11.833Z,5.80
2017-10-31T03:26:06.338Z,5.00
2017-10-31T03:31:34.463Z,4.67
2017-10-31T03:37:02.711Z,5.57
2017-10-31T03:42:32.812Z,6.10
2017-10-31T03:48:00.952Z,5.27
2017-10-31T03:53:29.847Z,4.90
2017-10-31T03:58:58.011Z,5.13
2017-10-31T04:04:26.150Z,5.40
2017-10-31T04:09:55.190Z,5.90
2017-10-31T04:15:23.323Z,5.30
2017-10-31T04:20:51.633Z,6.03
2017-10-31T04:26:20.554Z,5.03
2017-10-31T04:31:48.679Z,5.50
2017-10-31T04:37:17.694Z,5.27
2017-10-31T04:42:45.884Z,5.20
2017-10-31T04:48:14.014Z,4.90
2017-10-31T04:53:42.152Z,5.37
2017-10-31T04:59:10.324Z,5.10
2017-10-31T05:04:38.454Z,5.00
2017-10-31T05:10:06.577Z,4.93
2017-10-31T05:15:34.693Z,5.10
2017-10-31T05:21:02.805Z,4.53
2017-10-31T05:26:32.009Z,4.30
2017-10-31T05:32:00.188Z,4.53
2017-10-31T05:37:28.305Z,4.23
2017-10-31T05:43:02.240Z,4.83
2017-10-31T05:48:30.361Z,5.10
2017-10-31T05:53:59.590Z,4.20
2017-10-31T05:59:27.771Z,4.93
2017-10-31T06:04:55.894Z,4.80
2017-10-31T06:10:24.922Z,4.60
2017-10-31T06:15:53.818Z,4.43
2017-10-31T06:21:21.951Z,5.07
2017-10-31T06:32:50.434Z,4.70
2017-10-31T06:38:18.579Z,4.73
2017-10-31T06:43:47.484Z,3.87
2017-10-31T06:49:23.338Z,5.80
2017-10-31T06:54:51.461Z,3.80
2017-10-31T07:00:20.422Z,4.60
2017-10-31T07:05:48.550Z,3.60
2017-10-31T07:11:16.675Z,3.00
2017-10-31T07:16:44.804Z,3.23
2017-10-31T07:22:14.319Z,3.90
2017-10-31T07:27:42.490Z,3.40
2017-10-31T07:33:10.650Z,3.00
2017-10-31T07:38:38.789Z,3.37
2017-10-31T07:44:06.930Z,3.30
2017-10-31T07:49:35.806Z,3.40
2017-10-31T07:55:07.844Z,4.60
2017-10-31T08:00:35.974Z,3.30
2017-10-31T08:06:04.146Z,3.60
2017-10-31T08:11:33.099Z,3.10
2017-10-31T08:17:02.215Z,4.03
2017-10-31T08:22:30.360Z,3.57
2017-10-31T08:27:58.549Z,3.83
2017-10-31T08:33:28.097Z,5.00
2017-10-31T08:38:58.386Z,5.13
2017-10-31T08:44:38.698Z,4.83
2017-10-31T08:50:06.830Z,4.90
2017-10-31T08:55:48.471Z,5.97
2017-10-31T09:01:21.965Z,6.90
2017-10-31T09:06:51.196Z,6.57
2017-10-31T09:12:20.362Z,4.90
2017-10-31T09:17:51.254Z,7.50
2017-10-31T09:23:24.894Z,6.90
2017-10-31T09:28:53.078Z,6.47
2017-10-31T09:34:21.285Z,5.90
2017-10-31T09:39:50.285Z,5.37
2017-10-31T09:45:19.792Z,6.23
2017-10-31T09:50:51.860Z,5.33
2017-10-31T09:56:20.018Z,5.97
2017-10-31T10:01:53.090Z,5.80
2017-10-31T10:07:22.139Z,6.60
2017-10-31T10:12:51.025Z,5.60
2017-10-31T10:18:20.983Z,5.90
2017-10-31T10:23:49.900Z,6.33
2017-10-31T10:29:18.660Z,6.50
2017-10-31T10:34:50.852Z,5.77
2017-10-31T10:40:18.991Z,7.20
2017-10-31T10:45:48.108Z,6.30
2017-10-31T10:51:18.758Z,6.83
2017-10-31T10:56:46.900Z,6.60
2017-10-31T11:02:15.808Z,6.83
2017-10-31T11:07:43.939Z,6.00
2017-10-31T11:13:12.137Z,4.50
2017-10-31T11:18:42.941Z,5.93
2017-10-31T11:24:12.137Z,5.20
2017-10-31T11:29:40.304Z,4.27
2017-10-31T11:35:08.842Z,4.03
2017-10-31T11:40:40.594Z,4.13
2017-10-31T11:46:09.811Z,4.00
2017-10-31T11:51:38.901Z,4.07
2017-10-31T11:57:08.042Z,5.07
2017-10-31T12:02:38.358Z,5.13
2017-10-31T12:14:18.029Z,6.00
2017-10-31T12:19:47.215Z,5.60
2017-10-31T12:25:16.953Z,4.40
2017-10-31T12:30:45.151Z,5.10
2017-10-31T12:36:16.947Z,3.90
2017-10-31T12:41:46.012Z,4.30
2017-10-31T12:47:17.339Z,6.40
2017-10-31T12:52:45.492Z,3.77
2017-10-31T12:58:13.648Z,3.30
2017-10-31T13:03:42.026Z,3.30
2017-10-31T13:09:10.194Z,3.00
2017-10-31T13:14:38.398Z,3.37
2017-10-31T13:20:07.300Z,3.73
2017-10-31T13:25:35.463Z,3.97
2017-10-31T13:31:04.180Z,3.43
2017-10-31T13:36:33.834Z,4.20
2017-10-31T13:42:02.880Z,3.53
2017-10-31T13:47:31.509Z,10.27
2017-10-31T13:52:59.750Z,4.20
2017-10-31T13:58:27.899Z,3.50
2017-10-31T14:03:57.244Z,2.70
2017-10-31T14:09:25.976Z,3.23
2017-10-31T14:14:54.153Z,3.20
2017-10-31T14:20:32.778Z,3.17
2017-10-31T14:26:00.996Z,3.03
2017-10-31T14:31:30.052Z,3.93
2017-10-31T14:36:59.226Z,3.60
2017-10-31T14:42:29.361Z,3.20
2017-10-31T14:47:59.540Z,3.17
2017-10-31T14:53:30.700Z,3.13
2017-10-31T14:59:00.529Z,3.60
2017-10-31T15:04:28.750Z,4.10
2017-10-31T15:09:56.913Z,3.13
2017-10-31T15:15:25.096Z,3.70
2017-10-31T15:21:00.488Z,4.20
2017-10-31T15:26:28.649Z,4.27
2017-10-31T15:31:58.817Z,4.30
2017-10-31T15:37:26.961Z,4.37
2017-10-31T15:42:55.108Z,5.20
2017-10-31T15:48:23.257Z,4.90
2017-10-31T15:53:58.103Z,4.43
2017-10-31T15:59:26.289Z,5.63
2017-10-31T16:04:54.464Z,4.83
2017-10-31T16:10:22.609Z,5.10
2017-10-31T16:15:50.744Z,5.80
2017-10-31T16:21:19.022Z,5.40
2017-10-31T16:26:47.163Z,5.70
2017-10-31T16:32:15.495Z,5.70
2017-10-31T16:37:43.656Z,6.37
2017-10-31T16:43:11.855Z,5.50
2017-10-31T16:48:40.031Z,6.33
2017-10-31T16:54:08.988Z,12.80
2017-10-31T16:59:37.189Z,9.97
2017-10-31T17:05:06.099Z,9.17
2017-10-31T17:10:34.323Z,9.20
2017-10-31T17:16:02.622Z,8.20
2017-10-31T17:21:37.095Z,9.90
2017-10-31T17:27:05.381Z,13.70
2017-10-31T17:32:34.421Z,12.07
2017-10-31T17:38:08.351Z,11.37
2017-10-31T17:43:36.689Z,11.50
2017-10-31T17:49:05.654Z,11.53
2017-10-31T17:54:33.808Z,9.77
2017-10-31T18:00:01.957Z,13.40
2017-10-31T18:05:30.894Z,13.63
2017-10-31T18:11:03.438Z,17.37
2017-10-31T18:16:31.679Z,14.43
2017-10-31T18:21:59.846Z,16.60
2017-10-31T18:27:28.066Z,39.03
2017-10-31T18:32:56.229Z,18.13
2017-10-31T18:38:24.411Z,22.70
2017-10-31T18:43:52.551Z,23.17
2017-10-31T18:49:22.423Z,17.33
2017-10-31T18:54:51.137Z,20.60
2017-10-31T19:00:23.293Z,17.63
2017-10-31T19:05:51.461Z,17.73
2017-10-31T19:11:19.804Z,18.70
2017-10-31T19:16:51.097Z,18.83
2017-10-31T19:22:20.244Z,18.40
2017-10-31T19:27:49.390Z,17.60
2017-10-31T19:33:17.554Z,19.60
2017-10-31T19:38:46.043Z,29.47
2017-10-31T19:44:15.225Z,26.07
2017-10-31T19:49:44.334Z,27.13
2017-10-31T19:55:12.545Z,27.57
2017-10-31T20:00:46.670Z,26.90
2017-10-31T20:06:15.803Z,25.13
2017-10-31T20:11:43.995Z,24.63
2017-10-31T20:17:12.283Z,26.27
2017-10-31T20:22:40.509Z,24.00
2017-10-31T20:28:08.693Z,21.83
2017-10-31T20:33:36.973Z,19.63
2017-10-31T20:39:13.552Z,20.73
2017-10-31T20:44:41.730Z,18.93
2017-10-31T20:50:11.812Z,22.07
2017-10-31T21:01:13.935Z,15.73
2017-10-31T21:06:42.874Z,14.90
2017-10-31T21:12:13.659Z,14.20
2017-10-31T21:17:41.838Z,12.80
2017-10-31T21:23:10.089Z,11.47
2017-10-31T21:28:38.347Z,11.10
2017-10-31T21:34:09.360Z,11.70
2017-10-31T21:39:38.447Z,10.10
2017-10-31T21:45:11.584Z,10.60
2017-10-31T21:50:39.829Z,12.53
2017-10-31T21:56:08.053Z,11.83
2017-10-31T22:01:36.236Z,13.10
2017-10-31T22:07:05.179Z,13.50
2017-10-31T22:12:33.332Z,12.93
2017-10-31T22:18:01.476Z,14.20
2017-10-31T22:23:29.630Z,14.10
2017-10-31T22:28:58.557Z,14.97
2017-10-31T22:34:28.725Z,15.50
2017-10-31T22:40:08.841Z,14.33
2017-10-31T22:45:37.904Z,14.00
2017-10-31T22:51:06.098Z,13.80
2017-10-31T22:56:34.290Z,13.40
2017-10-31T23:02:02.450Z,15.53
2017-10-31T23:07:30.600Z,13.23
2017-10-31T23:13:17.275Z,12.27
2017-10-31T23:18:45.434Z,10.57
2017-10-31T23:24:15.316Z,11.10
2017-10-31T23:29:43.561Z,9.13
2017-10-31T23:35:11.781Z,8.50
2017-10-31T23:40:39.943Z,6.83
2017-10-31T23:46:08.112Z,7.20
2017-10-31T23:51:42.197Z,5.80
2017-10-31T23:57:13.342Z,6.43
